createdAt,value
2023-05-13T00:00:21.281Z,82.2347
2023-05-13T00:01:28.984Z,82.5811
2023-05-13T00:02:37.060Z,81.9944
2023-05-13T00:03:45.305Z,81.9404
2023-05-13T00:04:53.443Z,81.6063
2023-05-13T00:06:01.434Z,81.5020
2023-05-13T00:07:09.422Z,81.9258
2023-05-13T00:08:17.486Z,81.8861
2023-05-13T00:09:25.546Z,81.6539
2023-05-13T00:10:33.717Z,81.8634
2023-05-13T00:11:41.822Z,81.6867
2023-05-13T00:12:49.771Z,81.8945
2023-05-13T00:13:57.842Z,82.6871
2023-05-13T00:15:05.777Z,82.6026
2023-05-13T00:16:13.969Z,82.2771
2023-05-13T00:17:21.933Z,82.2936
2023-05-13T00:18:30.257Z,81.8884
2023-05-13T00:19:38.173Z,82.1255
2023-05-13T00:20:46.315Z,82.4775
2023-05-13T00:21:54.365Z,81.9050
2023-05-13T00:23:02.346Z,81.8538
2023-05-13T00:24:10.384Z,82.1848
2023-05-13T00:25:18.492Z,82.4880
2023-05-13T00:26:26.543Z,82.0150
2023-05-13T00:27:34.660Z,81.5564
2023-05-13T00:28:42.800Z,81.7702
2023-05-13T00:29:50.602Z,81.7558
2023-05-13T00:30:58.666Z,81.8257
2023-05-13T00:32:06.722Z,81.7774
2023-05-13T00:33:15.053Z,81.4597
2023-05-13T00:34:22.981Z,81.0568
2023-05-13T00:35:31.066Z,81.2021
2023-05-13T00:36:39.231Z,81.4178
2023-05-13T00:37:47.212Z,81.8165
2023-05-13T00:38:55.340Z,82.1144
2023-05-13T00:40:03.332Z,82.1368
2023-05-13T00:41:11.430Z,82.5283
2023-05-13T00:42:19.427Z,82.5225
2023-05-13T00:43:27.496Z,81.9565
2023-05-13T00:44:35.469Z,81.8020
2023-05-13T00:45:43.524Z,81.2505
2023-05-13T00:46:51.561Z,80.7699
2023-05-13T00:47:59.825Z,80.9223
2023-05-13T00:49:07.807Z,80.7866
2023-05-13T00:50:15.940Z,81.1375
2023-05-13T00:51:23.909Z,81.4176
2023-05-13T00:52:32.002Z,81.3682
2023-05-13T00:53:40.064Z,82.1407
2023-05-13T00:54:48.124Z,82.2429
2023-05-13T00:55:56.352Z,82.4646
2023-05-13T00:57:04.274Z,82.2736
2023-05-13T00:58:12.315Z,81.7431
2023-05-13T00:59:20.268Z,81.4807
2023-05-13T01:00:28.334Z,81.6891
2023-05-13T01:01:36.598Z,81.7826
2023-05-13T01:02:44.635Z,81.7263
2023-05-13T01:03:52.676Z,81.3141
2023-05-13T01:05:00.740Z,81.7020
2023-05-13T01:06:08.752Z,82.0872
2023-05-13T01:07:16.890Z,81.7010
2023-05-13T01:08:24.922Z,81.7812
2023-05-13T01:09:32.997Z,81.7209
2023-05-13T01:10:41.031Z,81.6769
2023-05-13T01:11:49.087Z,82.0900
2023-05-13T01:12:57.280Z,81.6881
2023-05-13T01:14:05.105Z,82.1887
2023-05-13T01:15:13.194Z,82.4620
2023-05-13T01:16:21.365Z,82.3956
2023-05-13T01:17:29.610Z,82.2060
2023-05-13T01:18:37.830Z,81.5054
2023-05-13T01:19:45.576Z,81.4679
2023-05-13T01:20:53.637Z,81.5991
2023-05-13T01:22:01.690Z,81.7520
2023-05-13T01:23:09.765Z,81.6999
2023-05-13T01:24:17.921Z,82.0818
2023-05-13T01:25:25.920Z,81.8144
2023-05-13T01:26:33.982Z,82.4023
2023-05-13T01:27:42.090Z,82.1623
2023-05-13T01:28:49.953Z,82.5407
2023-05-13T01:29:58.025Z,82.6420
2023-05-13T01:31:06.116Z,81.8924
2023-05-13T01:32:14.255Z,81.7251
2023-05-13T01:33:22.468Z,82.0864
2023-05-13T01:34:30.474Z,81.9136
2023-05-13T01:35:38.556Z,82.2235
2023-05-13T01:36:46.536Z,82.3204
2023-05-13T01:37:54.621Z,81.9940
2023-05-13T01:39:02.668Z,81.9312
2023-05-13T01:40:24.277Z,82.1696
2023-05-13T01:41:23.568Z,82.6811
2023-05-13T01:42:31.574Z,82.9863
2023-05-13T01:43:39.652Z,82.2939
2023-05-13T01:44:47.851Z,82.5556
2023-05-13T01:45:55.937Z,82.1954
2023-05-13T01:47:04.006Z,82.1313
2023-05-13T01:48:12.217Z,82.1557
2023-05-13T01:49:20.199Z,82.5013
2023-05-13T01:50:28.375Z,82.3711
2023-05-13T01:51:36.208Z,82.2026
2023-05-13T01:52:44.340Z,82.2105
2023-05-13T01:53:52.384Z,82.4508
2023-05-13T01:55:00.413Z,82.3881
2023-05-13T01:56:08.352Z,81.5988
2023-05-13T01:57:16.399Z,81.7491
2023-05-13T01:58:24.508Z,81.6185
2023-05-13T01:59:32.619Z,81.9159
2023-05-13T02:00:40.690Z,81.7369
2023-05-13T02:01:48.893Z,81.6960
2023-05-13T02:02:56.944Z,82.3079
2023-05-13T02:04:05.102Z,82.8128
2023-05-13T02:05:12.981Z,82.6596
2023-05-13T02:06:21.034Z,82.2451
2023-05-13T02:07:29.081Z,82.6081
2023-05-13T02:08:37.217Z,82.2065
2023-05-13T02:09:45.245Z,81.9083
2023-05-13T02:10:53.141Z,81.9765
2023-05-13T02:12:01.182Z,81.9820
2023-05-13T02:13:09.244Z,82.2375
2023-05-13T02:14:17.480Z,82.3766
2023-05-13T02:15:25.561Z,81.9008
2023-05-13T02:16:33.582Z,82.0081
2023-05-13T02:17:41.748Z,82.0853
2023-05-13T02:18:49.735Z,81.9533
2023-05-13T02:19:57.938Z,81.8215
2023-05-13T02:21:05.867Z,81.9086
2023-05-13T02:22:13.869Z,81.6598
2023-05-13T02:23:22.001Z,81.6779
2023-05-13T02:24:30.016Z,81.9507
2023-05-13T02:25:37.941Z,82.0419
2023-05-13T02:26:46.049Z,82.2562
2023-05-13T02:27:54.091Z,82.4643
2023-05-13T02:29:02.254Z,82.0919
2023-05-13T02:30:10.296Z,82.0156
2023-05-13T02:31:18.410Z,82.0819
2023-05-13T02:32:26.564Z,82.1104
2023-05-13T02:33:34.524Z,82.0077
2023-05-13T02:34:42.630Z,81.8251
2023-05-13T02:35:50.773Z,82.0726
2023-05-13T02:36:58.662Z,82.1411
2023-05-13T02:38:06.858Z,82.3556
2023-05-13T02:39:14.812Z,82.2624
2023-05-13T02:40:22.935Z,82.1831
2023-05-13T02:41:30.801Z,81.9301
2023-05-13T02:42:38.858Z,82.0647
2023-05-13T02:43:47.074Z,81.9071
2023-05-13T02:44:55.089Z,82.2712
2023-05-13T02:46:03.234Z,82.0642
2023-05-13T02:47:11.487Z,82.0041
2023-05-13T02:48:19.305Z,82.2198
2023-05-13T02:49:27.546Z,82.3378
2023-05-13T02:50:35.509Z,82.9598
2023-05-13T02:51:43.839Z,82.4318
2023-05-13T02:52:51.576Z,82.6594
2023-05-13T02:53:59.631Z,82.6479
2023-05-13T02:55:07.840Z,82.4089
2023-05-13T02:56:15.752Z,82.4600
2023-05-13T02:57:23.798Z,82.4446
2023-05-13T02:58:31.735Z,82.6589
2023-05-13T02:59:39.802Z,82.6643
2023-05-13T03:00:47.925Z,82.5891
2023-05-13T03:01:56.047Z,82.9613
2023-05-13T03:03:04.244Z,82.6783
2023-05-13T03:04:12.237Z,82.1012
2023-05-13T03:05:20.250Z,82.5572
2023-05-13T03:06:28.374Z,83.2297
2023-05-13T03:07:36.501Z,83.3552
2023-05-13T03:08:44.431Z,82.9538
2023-05-13T03:09:52.503Z,82.1357
2023-05-13T03:11:00.576Z,82.5985
2023-05-13T03:12:08.686Z,82.9456
2023-05-13T03:13:16.564Z,82.9313
2023-05-13T03:14:24.642Z,82.5855
2023-05-13T03:15:32.708Z,82.5971
2023-05-13T03:16:41.046Z,82.2619
2023-05-13T03:17:49.043Z,82.3725
2023-05-13T03:18:57.126Z,82.4706
2023-05-13T03:20:05.208Z,82.3894
2023-05-13T03:21:13.210Z,82.2060
2023-05-13T03:22:21.267Z,82.3395
2023-05-13T03:23:29.521Z,82.7128
2023-05-13T03:24:37.413Z,83.0733
2023-05-13T03:25:45.453Z,82.7187
2023-05-13T03:26:53.523Z,82.6913
2023-05-13T03:28:01.476Z,82.5687
2023-05-13T03:29:09.606Z,82.7880
2023-05-13T03:30:17.587Z,82.9674
2023-05-13T03:31:25.644Z,82.8075
2023-05-13T03:32:33.863Z,83.4641
2023-05-13T03:33:42.219Z,83.7336
2023-05-13T03:34:50.031Z,83.3063
2023-05-13T03:35:58.045Z,82.5835
2023-05-13T03:37:06.142Z,82.7671
2023-05-13T03:38:14.401Z,83.4828
2023-05-13T03:39:22.220Z,83.4167
2023-05-13T03:40:30.422Z,83.0017
2023-05-13T03:41:38.336Z,82.4651
2023-05-13T03:42:46.457Z,82.7463
2023-05-13T03:43:54.305Z,82.8100
2023-05-13T03:45:02.388Z,82.4683
2023-05-13T03:46:10.478Z,82.0407
2023-05-13T03:47:18.651Z,82.3087
2023-05-13T03:48:26.857Z,82.7133
2023-05-13T03:49:34.902Z,82.6274
2023-05-13T03:50:42.947Z,82.5102
2023-05-13T03:51:50.934Z,82.3762
2023-05-13T03:52:58.975Z,82.3674
2023-05-13T03:54:06.985Z,82.4007
2023-05-13T03:55:15.200Z,82.6478
2023-05-13T03:56:23.117Z,82.7523
2023-05-13T03:57:31.385Z,83.1568
2023-05-13T03:58:39.100Z,83.0511
2023-05-13T03:59:47.115Z,82.9948
2023-05-13T04:00:55.217Z,83.1819
2023-05-13T04:02:03.405Z,83.0917
2023-05-13T04:03:11.622Z,82.8598
2023-05-13T04:04:19.534Z,82.6200
2023-05-13T04:05:27.700Z,82.8093
2023-05-13T04:06:35.601Z,82.3298
2023-05-13T04:07:43.785Z,82.3374
2023-05-13T04:08:51.784Z,82.2524
2023-05-13T04:09:59.797Z,82.4272
2023-05-13T04:11:07.905Z,82.7285
2023-05-13T04:12:16.112Z,82.3078
2023-05-13T04:13:23.873Z,82.9886
2023-05-13T04:14:31.960Z,83.2126
2023-05-13T04:15:40.030Z,82.5858
2023-05-13T04:16:48.231Z,82.7508
2023-05-13T04:17:56.291Z,82.8978
2023-05-13T04:19:04.413Z,82.9008
2023-05-13T04:20:12.461Z,82.6808
2023-05-13T04:21:20.553Z,82.3140
2023-05-13T04:22:28.795Z,82.9624
2023-05-13T04:23:36.562Z,82.9318
2023-05-13T04:24:44.621Z,82.7824
2023-05-13T04:25:52.763Z,82.3286
2023-05-13T04:27:01.544Z,82.7159
2023-05-13T04:28:08.701Z,82.8796
2023-05-13T04:29:16.726Z,83.4155
2023-05-13T04:30:24.788Z,82.8510
2023-05-13T04:31:33.057Z,82.8970
2023-05-13T04:32:41.161Z,82.8133
2023-05-13T04:33:49.105Z,82.4538
2023-05-13T04:34:57.228Z,82.4911
2023-05-13T04:36:05.214Z,82.1375
2023-05-13T04:37:13.460Z,82.6528
2023-05-13T04:38:21.341Z,82.7787
2023-05-13T04:39:29.485Z,82.2708
2023-05-13T04:40:37.517Z,82.8687
2023-05-13T04:41:45.574Z,82.9196
2023-05-13T04:42:53.505Z,82.5155
2023-05-13T04:44:01.526Z,82.2812
2023-05-13T04:45:09.595Z,82.7403
2023-05-13T04:46:17.781Z,82.7002
2023-05-13T04:47:25.737Z,82.1922
2023-05-13T04:48:33.947Z,82.5587
2023-05-13T04:49:41.979Z,82.7401
2023-05-13T04:50:50.031Z,82.8714
2023-05-13T04:51:58.317Z,83.1872
2023-05-13T04:53:06.145Z,83.3982
2023-05-13T04:54:14.367Z,83.0546
2023-05-13T04:55:22.733Z,83.0120
2023-05-13T04:56:30.199Z,82.2086
2023-05-13T04:57:38.245Z,82.7017
2023-05-13T04:58:46.313Z,83.3169
2023-05-13T04:59:54.573Z,83.1189
2023-05-13T05:01:02.603Z,82.8063
2023-05-13T05:02:10.893Z,82.6842
2023-05-13T05:03:18.698Z,82.7111
2023-05-13T05:04:26.779Z,82.9202
2023-05-13T05:05:34.874Z,82.5418
2023-05-13T05:06:42.983Z,82.9229
2023-05-13T05:07:50.945Z,82.1569
2023-05-13T05:08:59.025Z,82.3095
2023-05-13T05:10:07.124Z,82.6025
2023-05-13T05:11:15.050Z,82.3802
2023-05-13T05:12:23.065Z,81.6184
2023-05-13T05:13:31.135Z,81.8656
2023-05-13T05:14:39.358Z,82.0702
2023-05-13T05:15:47.392Z,82.5527
2023-05-13T05:16:55.528Z,82.6337
2023-05-13T05:18:03.531Z,82.8333
2023-05-13T05:19:11.706Z,82.5152
2023-05-13T05:20:19.850Z,82.2649
2023-05-13T05:21:27.798Z,82.3402
2023-05-13T05:22:35.805Z,81.6957
2023-05-13T05:23:43.785Z,82.4585
2023-05-13T05:24:51.906Z,82.8914
2023-05-13T05:26:10.621Z,83.1994
2023-05-13T05:27:12.719Z,82.5452
2023-05-13T05:28:20.949Z,82.0973
2023-05-13T05:29:29.020Z,81.7102
2023-05-13T05:30:37.011Z,81.6977
2023-05-13T05:31:45.076Z,82.0270
2023-05-13T05:32:53.235Z,82.6743
2023-05-13T05:34:01.368Z,82.0048
2023-05-13T05:35:09.257Z,81.6011
2023-05-13T05:36:17.357Z,81.9395
2023-05-13T05:37:25.378Z,82.1641
2023-05-13T05:38:33.505Z,82.1921
2023-05-13T05:39:41.417Z,82.3206
2023-05-13T05:40:49.436Z,81.9010
2023-05-13T05:41:57.469Z,81.7642
2023-05-13T05:43:05.689Z,82.4914
2023-05-13T05:44:13.724Z,82.5318
2023-05-13T05:45:21.844Z,82.2585
2023-05-13T05:46:29.884Z,81.9215
2023-05-13T05:47:38.021Z,82.0847
2023-05-13T05:48:45.977Z,81.9313
2023-05-13T05:49:54.162Z,81.0234
2023-05-13T05:51:02.200Z,81.0843
2023-05-13T05:52:10.135Z,81.4722
2023-05-13T05:53:18.215Z,81.7339
2023-05-13T05:54:26.125Z,81.5919
2023-05-13T05:55:34.235Z,81.4259
2023-05-13T05:56:42.393Z,80.8084
2023-05-13T05:57:50.427Z,80.5333
2023-05-13T05:58:58.631Z,80.9134
2023-05-13T06:00:06.572Z,80.9471
2023-05-13T06:01:14.632Z,81.2681
2023-05-13T06:02:22.767Z,81.6772
2023-05-13T06:03:30.810Z,81.3196
2023-05-13T06:04:38.890Z,81.0580
2023-05-13T06:05:46.999Z,81.3300
2023-05-13T06:06:55.008Z,81.3017
2023-05-13T06:08:02.991Z,81.1749
2023-05-13T06:09:10.939Z,81.5510
2023-05-13T06:10:19.232Z,81.4929
2023-05-13T06:11:27.017Z,81.7129
2023-05-13T06:12:35.260Z,82.0636
2023-05-13T06:13:43.176Z,81.5603
2023-05-13T06:14:51.309Z,81.2987
2023-05-13T06:15:59.454Z,81.5790
2023-05-13T06:17:07.432Z,80.9334
2023-05-13T06:18:15.493Z,80.3280
2023-05-13T06:19:23.648Z,80.5599
2023-05-13T06:20:31.602Z,81.8653
2023-05-13T06:21:39.666Z,80.7372
2023-05-13T06:22:47.804Z,80.4816
2023-05-13T06:23:55.669Z,80.4777
2023-05-13T06:25:03.767Z,79.7375
2023-05-13T06:26:11.771Z,80.0025
2023-05-13T06:27:19.944Z,80.7756
2023-05-13T06:28:28.225Z,80.3806
2023-05-13T06:29:36.229Z,79.7213
2023-05-13T06:30:44.192Z,79.3936
2023-05-13T06:31:52.248Z,79.2636
2023-05-13T06:33:02.157Z,79.8606
2023-05-13T06:34:13.173Z,79.7832
2023-05-13T06:35:21.235Z,79.8724
2023-05-13T06:36:29.267Z,80.4222
2023-05-13T06:37:37.232Z,80.4367
2023-05-13T06:38:45.254Z,80.0531
2023-05-13T06:39:53.319Z,79.7233
2023-05-13T06:41:01.643Z,80.2472
2023-05-13T06:42:09.612Z,79.8097
2023-05-13T06:43:17.700Z,79.8362
2023-05-13T06:44:25.680Z,80.1870
2023-05-13T06:45:33.729Z,80.2158
2023-05-13T06:46:41.848Z,80.2017
2023-05-13T06:47:49.924Z,79.4551
2023-05-13T06:48:57.905Z,79.0692
2023-05-13T06:50:05.993Z,78.6059
2023-05-13T06:51:14.016Z,78.9125
2023-05-13T06:52:21.953Z,79.2922
2023-05-13T06:53:30.088Z,80.4084
2023-05-13T06:54:38.059Z,80.1428
2023-05-13T06:55:46.349Z,79.7490
2023-05-13T06:56:54.286Z,80.3950
2023-05-13T06:58:02.352Z,80.7724
2023-05-13T06:59:10.537Z,80.7904
2023-05-13T07:00:18.530Z,80.6428
2023-05-13T07:01:27.985Z,79.6862
2023-05-13T07:02:39.698Z,78.5374
2023-05-13T07:03:47.841Z,77.9109
2023-05-13T07:04:55.501Z,78.3262
2023-05-13T07:06:03.532Z,78.9328
2023-05-13T07:07:11.587Z,78.9727
2023-05-13T07:08:19.747Z,78.7767
2023-05-13T07:09:27.838Z,78.8192
2023-05-13T07:10:35.954Z,78.6896
2023-05-13T07:11:43.952Z,77.8714
2023-05-13T07:12:51.962Z,77.9133
2023-05-13T07:14:00.024Z,78.8291
2023-05-13T07:15:08.075Z,79.0070
2023-05-13T07:16:16.251Z,78.6492
2023-05-13T07:17:24.345Z,77.7555
2023-05-13T07:18:32.508Z,77.6336
2023-05-13T07:19:40.222Z,77.5302
2023-05-13T07:20:48.278Z,77.4183
2023-05-13T07:21:56.401Z,76.5856
2023-05-13T07:23:04.503Z,76.9732
2023-05-13T07:24:12.674Z,77.0997
2023-05-13T07:25:20.648Z,76.5443
2023-05-13T07:26:28.721Z,75.9201
2023-05-13T07:27:36.857Z,76.1208
2023-05-13T07:28:44.874Z,76.1324
2023-05-13T07:29:52.955Z,76.0507
2023-05-13T07:31:00.991Z,76.9769
2023-05-13T07:32:09.033Z,76.3251
2023-05-13T07:33:17.213Z,76.4890
2023-05-13T07:34:25.080Z,77.6893
2023-05-13T07:35:33.125Z,79.0309
2023-05-13T07:36:41.179Z,78.5863
2023-05-13T07:37:49.365Z,78.8662
2023-05-13T07:38:57.429Z,78.9630
2023-05-13T07:40:05.526Z,79.1277
2023-05-13T07:41:13.489Z,79.0375
2023-05-13T07:42:21.517Z,79.4396
2023-05-13T07:43:29.593Z,79.4523
2023-05-13T07:44:37.712Z,79.2570
2023-05-13T07:45:45.746Z,78.8953
2023-05-13T07:46:53.936Z,78.7833
2023-05-13T07:48:01.961Z,78.4523
2023-05-13T07:49:09.828Z,79.0879
2023-05-13T07:50:17.907Z,78.8280
2023-05-13T07:51:26.069Z,79.7966
2023-05-13T07:52:34.224Z,79.5780
2023-05-13T07:53:42.425Z,78.4497
2023-05-13T07:54:50.250Z,78.4592
2023-05-13T07:55:58.369Z,79.2814
2023-05-13T07:57:06.337Z,78.7011
2023-05-13T07:58:14.367Z,78.1343
2023-05-13T07:59:22.488Z,78.4516
2023-05-13T08:00:30.518Z,78.4240
2023-05-13T08:01:38.693Z,78.0282
2023-05-13T08:02:46.683Z,77.3817
2023-05-13T08:03:54.738Z,78.5847
2023-05-13T08:05:02.651Z,79.0280
2023-05-13T08:06:10.678Z,78.7359
2023-05-13T08:07:18.911Z,79.2961
2023-05-13T08:08:27.333Z,79.4194
2023-05-13T08:09:35.190Z,78.8057
2023-05-13T08:10:43.019Z,77.7592
2023-05-13T08:11:51.207Z,77.5519
2023-05-13T08:12:59.179Z,78.2852
2023-05-13T08:14:07.206Z,77.9052
2023-05-13T08:15:15.385Z,77.0319
2023-05-13T08:16:23.294Z,77.3414
2023-05-13T08:17:31.396Z,77.5808
2023-05-13T08:18:39.371Z,77.2898
2023-05-13T08:19:47.378Z,77.1006
2023-05-13T08:20:55.431Z,75.9496
2023-05-13T08:22:03.611Z,76.7470
2023-05-13T08:23:11.661Z,77.0936
2023-05-13T08:24:19.924Z,76.5336
2023-05-13T08:25:27.807Z,77.0789
2023-05-13T08:26:35.939Z,77.2148
2023-05-13T08:27:43.895Z,76.6717
2023-05-13T08:28:54.779Z,76.3778
2023-05-13T08:30:04.932Z,75.5881
2023-05-13T08:31:12.993Z,75.8937
2023-05-13T08:32:20.920Z,76.3729
2023-05-13T08:33:28.951Z,76.3271
2023-05-13T08:34:37.007Z,76.8000
2023-05-13T08:35:45.243Z,75.9495
2023-05-13T08:36:53.223Z,76.3129
2023-05-13T08:38:01.330Z,76.2021
2023-05-13T08:39:09.604Z,75.1477
2023-05-13T08:40:17.417Z,74.7283
2023-05-13T08:41:25.539Z,74.4652
2023-05-13T08:42:33.525Z,74.3795
2023-05-13T08:43:41.790Z,74.8681
2023-05-13T08:44:49.693Z,74.2313
2023-05-13T08:45:57.781Z,72.8555
2023-05-13T08:47:05.768Z,72.4379
2023-05-13T08:48:13.792Z,73.4488
2023-05-13T08:49:21.812Z,73.6554
2023-05-13T08:50:30.006Z,73.9492
2023-05-13T08:51:38.049Z,72.5793
2023-05-13T08:52:46.123Z,72.0799
2023-05-13T08:53:54.212Z,73.6680
2023-05-13T08:55:02.234Z,73.6517
2023-05-13T08:56:10.295Z,73.6071
2023-05-13T08:57:18.381Z,74.5260
2023-05-13T08:58:26.503Z,75.3727
2023-05-13T08:59:34.505Z,73.6543
2023-05-13T09:00:42.532Z,72.5754
2023-05-13T09:01:50.612Z,72.6823
2023-05-13T09:02:58.580Z,73.4690
2023-05-13T09:04:06.644Z,73.3358
2023-05-13T09:05:14.864Z,73.4682
2023-05-13T09:06:22.855Z,72.9459
2023-05-13T09:07:30.955Z,72.5073
2023-05-13T09:08:38.970Z,72.4933
2023-05-13T09:09:47.073Z,72.2973
2023-05-13T09:10:55.262Z,73.5602
2023-05-13T09:12:03.091Z,73.6779
2023-05-13T09:13:11.210Z,73.9471
2023-05-13T09:14:19.310Z,74.6711
2023-05-13T09:15:27.440Z,76.1112
2023-05-13T09:16:35.332Z,76.9764
2023-05-13T09:17:43.366Z,76.3147
2023-05-13T09:18:51.495Z,78.2446
2023-05-13T09:19:59.620Z,78.9335
2023-05-13T09:21:07.707Z,77.9617
2023-05-13T09:22:15.728Z,77.6709
2023-05-13T09:23:23.775Z,77.2818
2023-05-13T09:24:31.833Z,77.6767
2023-05-13T09:25:39.903Z,75.2801
2023-05-13T09:26:48.087Z,74.8661
2023-05-13T09:27:56.101Z,73.9845
2023-05-13T09:29:04.031Z,73.9068
2023-05-13T09:30:12.146Z,74.3896
2023-05-13T09:31:20.127Z,76.4117
2023-05-13T09:32:28.244Z,75.2172
2023-05-13T09:33:36.141Z,75.7427
2023-05-13T09:34:44.347Z,77.0559
2023-05-13T09:35:52.409Z,76.6166
2023-05-13T09:37:00.462Z,76.6347
2023-05-13T09:38:08.554Z,76.1160
2023-05-13T09:39:16.571Z,76.4745
2023-05-13T09:40:24.859Z,77.6823
2023-05-13T09:41:32.733Z,77.4120
2023-05-13T09:42:41.010Z,77.1615
2023-05-13T09:43:49.048Z,77.0331
2023-05-13T09:44:56.896Z,78.1574
2023-05-13T09:46:04.837Z,77.7010
2023-05-13T09:47:13.024Z,76.7020
2023-05-13T09:48:20.938Z,77.7894
2023-05-13T09:49:29.212Z,78.8912
2023-05-13T09:50:37.167Z,79.9543
2023-05-13T09:51:45.256Z,78.9643
2023-05-13T09:52:53.464Z,79.4199
2023-05-13T09:54:01.540Z,79.9605
2023-05-13T09:55:09.450Z,80.6774
2023-05-13T09:56:17.490Z,80.7578
2023-05-13T09:57:25.602Z,81.6284
2023-05-13T09:58:33.666Z,81.3753
2023-05-13T09:59:41.800Z,80.3821
2023-05-13T10:00:49.698Z,80.8684
2023-05-13T10:01:57.666Z,80.8875
2023-05-13T10:03:05.773Z,80.7136
2023-05-13T10:04:13.933Z,80.5100
2023-05-13T10:05:21.993Z,80.1537
2023-05-13T10:06:30.156Z,79.1587
2023-05-13T10:07:38.062Z,79.8022
2023-05-13T10:08:46.170Z,79.4965
2023-05-13T10:09:54.164Z,79.1466
2023-05-13T10:11:02.281Z,79.6423
2023-05-13T10:12:10.407Z,78.8711
2023-05-13T10:13:18.373Z,78.8288
2023-05-13T10:14:26.602Z,78.4327
2023-05-13T10:15:34.538Z,79.1622
2023-05-13T10:16:42.475Z,80.5469
2023-05-13T10:17:50.601Z,79.9915
2023-05-13T10:18:58.783Z,79.7343
2023-05-13T10:20:06.768Z,79.7583
2023-05-13T10:21:14.802Z,79.6690
2023-05-13T10:22:22.971Z,79.6482
2023-05-13T10:23:31.009Z,78.3778
2023-05-13T10:24:39.039Z,79.1470
2023-05-13T10:25:47.037Z,79.5360
2023-05-13T10:26:55.090Z,79.1116
2023-05-13T10:28:03.146Z,77.0077
2023-05-13T10:29:11.205Z,76.2653
2023-05-13T10:30:19.171Z,75.4217
2023-05-13T10:31:27.216Z,76.0336
2023-05-13T10:32:35.286Z,74.6796
2023-05-13T10:33:43.439Z,74.9079
2023-05-13T10:34:51.599Z,74.6217
2023-05-13T10:35:59.542Z,74.3769
2023-05-13T10:37:07.669Z,73.7658
2023-05-13T10:38:15.713Z,73.5346
2023-05-13T10:39:23.759Z,73.0827
2023-05-13T10:40:31.884Z,71.6821
2023-05-13T10:41:39.910Z,73.2807
2023-05-13T10:42:47.948Z,73.2607
2023-05-13T10:43:56.013Z,74.0266
2023-05-13T10:45:03.932Z,71.9111
2023-05-13T10:46:12.021Z,71.6630
2023-05-13T10:47:20.057Z,71.6811
2023-05-13T10:48:28.139Z,70.2005
2023-05-13T10:49:36.298Z,72.1946
2023-05-13T10:50:44.323Z,69.3736
2023-05-13T10:51:52.423Z,69.5789
2023-05-13T10:53:00.394Z,70.6360
2023-05-13T10:54:08.464Z,69.7329
2023-05-13T10:55:16.636Z,71.2302
2023-05-13T10:56:24.666Z,70.0546
2023-05-13T10:57:32.715Z,69.4871
2023-05-13T10:58:40.614Z,70.8912
2023-05-13T10:59:48.696Z,71.1463
2023-05-13T11:00:56.759Z,71.9858
2023-05-13T11:02:05.014Z,70.6754
2023-05-13T11:03:13.118Z,71.1275
2023-05-13T11:04:21.027Z,70.3842
2023-05-13T11:05:29.094Z,70.5637
2023-05-13T11:06:37.181Z,70.4018
2023-05-13T11:07:45.212Z,68.9298
2023-05-13T11:08:55.977Z,69.1938
2023-05-13T11:10:06.225Z,68.5003
2023-05-13T11:11:14.393Z,67.3467
2023-05-13T11:12:22.221Z,67.3988
2023-05-13T11:13:30.287Z,66.8768
2023-05-13T11:14:38.386Z,68.0142
2023-05-13T11:15:46.622Z,69.9631
2023-05-13T11:16:54.538Z,68.6091
2023-05-13T11:18:02.644Z,66.8664
2023-05-13T11:19:10.881Z,64.6918
2023-05-13T11:20:18.811Z,66.7600
2023-05-13T11:21:26.764Z,64.0883
2023-05-13T11:22:34.874Z,63.7401
2023-05-13T11:23:42.927Z,62.3754
2023-05-13T11:24:50.964Z,61.3010
2023-05-13T11:25:59.090Z,62.3690
2023-05-13T11:27:06.995Z,62.3775
2023-05-13T11:28:15.040Z,61.7875
2023-05-13T11:29:23.109Z,61.7562
2023-05-13T11:30:31.245Z,61.4131
2023-05-13T11:31:39.466Z,63.1876
2023-05-13T11:32:47.487Z,61.2238
2023-05-13T11:33:55.402Z,60.9834
2023-05-13T11:35:03.491Z,60.2615
2023-05-13T11:36:11.597Z,59.6830
2023-05-13T11:37:19.757Z,62.3291
2023-05-13T11:38:27.721Z,61.4389
2023-05-13T11:39:35.771Z,60.5779
2023-05-13T11:40:43.899Z,59.8371
2023-05-13T11:41:51.790Z,59.3051
2023-05-13T11:42:59.934Z,58.7621
2023-05-13T11:44:07.931Z,59.3706
2023-05-13T11:45:15.982Z,60.9100
2023-05-13T11:46:24.169Z,59.0578
2023-05-13T11:47:32.223Z,58.8759
2023-05-13T11:48:40.299Z,59.8101
2023-05-13T11:49:48.273Z,59.7874
2023-05-13T11:50:56.356Z,61.7072
2023-05-13T11:52:04.538Z,59.5945
2023-05-13T11:53:12.476Z,58.6455
2023-05-13T11:54:20.606Z,60.1459
2023-05-13T11:55:28.600Z,59.3097
2023-05-13T11:56:36.571Z,59.0731
2023-05-13T11:57:44.600Z,56.4299
2023-05-13T11:58:52.643Z,55.0806
2023-05-13T12:00:00.973Z,53.9296
2023-05-13T12:01:08.895Z,54.1533
2023-05-13T12:02:17.102Z,53.6544
2023-05-13T12:03:25.145Z,55.7121
2023-05-13T12:04:33.056Z,53.8836
2023-05-13T12:05:41.212Z,55.6198
2023-05-13T12:06:49.192Z,53.5375
2023-05-13T12:07:57.295Z,54.4975
2023-05-13T12:09:05.455Z,54.2665
2023-05-13T12:10:13.435Z,54.3102
2023-05-13T12:11:21.380Z,54.6101
2023-05-13T12:12:29.399Z,51.8114
2023-05-13T12:13:38.003Z,51.6329
2023-05-13T12:14:45.632Z,52.1785
2023-05-13T12:15:53.780Z,52.2378
2023-05-13T12:17:01.969Z,53.7686
2023-05-13T12:18:09.852Z,52.7411
2023-05-13T12:19:17.911Z,53.4339
2023-05-13T12:20:25.938Z,54.5696
2023-05-13T12:21:33.986Z,54.1391
2023-05-13T12:22:42.147Z,53.2016
2023-05-13T12:23:50.211Z,50.9981
2023-05-13T12:24:58.331Z,50.2762
2023-05-13T12:26:06.200Z,51.1125
2023-05-13T12:27:14.214Z,51.8903
2023-05-13T12:28:22.330Z,54.0054
2023-05-13T12:29:30.446Z,57.3332
2023-05-13T12:30:38.767Z,55.6371
2023-05-13T12:31:46.733Z,56.4242
2023-05-13T12:32:54.783Z,57.3160
2023-05-13T12:34:02.717Z,57.9869
2023-05-13T12:35:10.814Z,58.9902
2023-05-13T12:36:18.826Z,58.0586
2023-05-13T12:37:26.935Z,57.4490
2023-05-13T12:38:34.968Z,59.0086
2023-05-13T12:39:43.029Z,59.3874
2023-05-13T12:40:50.908Z,60.5732
2023-05-13T12:41:58.975Z,60.2567
2023-05-13T12:43:07.027Z,62.2763
2023-05-13T12:44:15.221Z,61.2625
2023-05-13T12:45:23.560Z,62.0003
2023-05-13T12:46:31.473Z,61.3283
2023-05-13T12:47:39.400Z,61.0548
2023-05-13T12:48:47.585Z,62.2859
2023-05-13T12:49:55.507Z,62.5940
2023-05-13T12:51:03.882Z,63.3230
2023-05-13T12:52:11.614Z,63.5626
2023-05-13T12:53:19.701Z,63.5659
2023-05-13T12:54:27.752Z,64.0950
2023-05-13T12:55:35.680Z,62.6872
2023-05-13T12:56:43.815Z,61.3240
2023-05-13T12:57:51.789Z,57.2017
2023-05-13T12:58:59.942Z,56.6600
2023-05-13T13:00:08.060Z,56.3579
2023-05-13T13:01:16.156Z,55.2743
2023-05-13T13:02:24.065Z,55.5795
2023-05-13T13:03:32.303Z,55.9117
2023-05-13T13:04:40.401Z,54.9079
2023-05-13T13:05:48.317Z,55.1799
2023-05-13T13:06:56.589Z,56.0738
2023-05-13T13:08:04.520Z,54.7648
2023-05-13T13:09:12.498Z,52.7776
2023-05-13T13:10:20.489Z,52.8621
2023-05-13T13:11:28.470Z,51.2392
2023-05-13T13:12:36.530Z,52.7188
2023-05-13T13:13:44.707Z,51.2388
2023-05-13T13:14:52.777Z,50.0571
2023-05-13T13:16:00.900Z,49.7806
2023-05-13T13:17:08.912Z,50.2728
2023-05-13T13:18:16.945Z,51.9557
2023-05-13T13:19:25.192Z,51.9479
2023-05-13T13:20:33.206Z,50.9932
2023-05-13T13:21:41.221Z,52.7170
2023-05-13T13:22:49.215Z,54.1867
2023-05-13T13:23:57.224Z,54.8850
2023-05-13T13:25:05.222Z,55.3866
2023-05-13T13:26:13.250Z,54.3330
2023-05-13T13:27:21.291Z,55.2817
2023-05-13T13:28:29.505Z,55.7600
2023-05-13T13:29:37.554Z,56.3061
2023-05-13T13:30:45.704Z,54.8532
2023-05-13T13:31:53.795Z,54.5040
2023-05-13T13:33:01.775Z,55.3837
2023-05-13T13:34:09.804Z,54.0258
2023-05-13T13:35:17.839Z,53.5574
2023-05-13T13:36:25.961Z,54.2727
2023-05-13T13:37:35.466Z,55.0106
2023-05-13T13:38:46.759Z,54.7513
2023-05-13T13:39:54.839Z,54.1822
2023-05-13T13:41:02.890Z,54.0588
2023-05-13T13:42:11.125Z,54.7822
2023-05-13T13:43:19.143Z,54.8818